createdAt,value
2022-10-14T00:01:10.995Z,49.57
2022-10-14T00:03:41.099Z,48.90
2022-10-14T00:06:08.617Z,40.20
2022-10-14T00:08:34.965Z,53.43
2022-10-14T00:11:07.569Z,50.73
2022-10-14T00:13:34.427Z,44.37
2022-10-14T00:16:01.099Z,47.80
2022-10-14T00:18:27.483Z,47.90
2022-10-14T00:20:54.748Z,50.30
2022-10-14T00:23:21.092Z,50.53
2022-10-14T00:25:47.449Z,50.60
2022-10-14T00:28:13.847Z,52.87
2022-10-14T00:30:40.218Z,48.87
2022-10-14T00:33:06.576Z,45.93
2022-10-14T00:35:33.026Z,43.10
2022-10-14T00:37:59.659Z,51.17
2022-10-14T00:40:26.498Z,48.80
2022-10-14T00:42:52.867Z,43.73
2022-10-14T00:45:23.754Z,53.53
2022-10-14T00:47:51.719Z,51.37
2022-10-14T00:50:18.649Z,52.10
2022-10-14T00:52:45.326Z,44.60
2022-10-14T00:55:14.033Z,46.57
2022-10-14T00:57:40.583Z,47.43
2022-10-14T01:00:17.200Z,49.53
2022-10-14T01:02:43.598Z,50.03
2022-10-14T01:05:10.849Z,48.97
2022-10-14T01:07:39.924Z,48.80
2022-10-14T01:10:15.510Z,48.97
2022-10-14T01:13:02.138Z,53.10
2022-10-14T01:15:31.087Z,50.73
2022-10-14T01:18:12.414Z,49.20
2022-10-14T01:20:38.742Z,45.33
2022-10-14T01:23:11.170Z,47.53
2022-10-14T01:25:53.040Z,53.17
2022-10-14T01:28:22.510Z,49.47
2022-10-14T01:30:50.003Z,48.17
2022-10-14T01:33:24.082Z,46.90
2022-10-14T01:36:03.074Z,51.50
2022-10-14T01:38:32.282Z,49.57
2022-10-14T01:41:02.717Z,54.77
2022-10-14T01:43:30.484Z,53.70
2022-10-14T01:45:58.485Z,50.53
2022-10-14T01:48:26.895Z,46.90
2022-10-14T01:50:54.850Z,51.30
2022-10-14T01:53:26.105Z,51.90
2022-10-14T01:55:54.568Z,51.97
2022-10-14T01:58:23.336Z,44.80
2022-10-14T02:00:49.799Z,45.53
2022-10-14T02:03:16.131Z,44.50
2022-10-14T02:05:48.855Z,40.93
2022-10-14T02:08:24.031Z,49.77
2022-10-14T02:11:08.832Z,46.40
2022-10-14T02:13:43.170Z,45.83
2022-10-14T02:16:28.435Z,38.70
2022-10-14T02:19:02.976Z,40.27
2022-10-14T02:21:32.418Z,40.20
2022-10-14T02:24:07.768Z,42.47
2022-10-14T02:26:35.223Z,38.53
2022-10-14T02:29:01.988Z,42.77
2022-10-14T02:31:28.458Z,45.47
2022-10-14T02:33:56.901Z,55.03
2022-10-14T02:36:24.562Z,49.77
2022-10-14T02:38:52.561Z,46.70
2022-10-14T02:41:21.026Z,38.63
2022-10-14T02:43:47.423Z,43.53
2022-10-14T02:46:13.866Z,47.50
2022-10-14T02:48:40.317Z,48.33
2022-10-14T02:51:06.664Z,45.43
2022-10-14T02:53:32.998Z,55.73
2022-10-14T02:55:59.369Z,56.57
2022-10-14T02:58:25.719Z,52.03
2022-10-14T03:00:52.610Z,50.90
2022-10-14T03:03:19.014Z,52.07
2022-10-14T03:05:45.457Z,54.77
2022-10-14T03:08:11.823Z,49.53
2022-10-14T03:10:38.229Z,52.33
2022-10-14T03:13:04.555Z,52.33
2022-10-14T03:15:30.896Z,48.63
2022-10-14T03:17:57.271Z,73.83
2022-10-14T03:20:23.635Z,93.10
2022-10-14T03:22:49.952Z,63.20
2022-10-14T03:25:16.424Z,51.23
2022-10-14T03:27:42.878Z,51.03
2022-10-14T03:30:11.842Z,53.77
2022-10-14T03:32:38.238Z,52.57
2022-10-14T03:35:04.782Z,49.67
2022-10-14T03:37:31.109Z,52.10
2022-10-14T03:39:57.481Z,47.93
2022-10-14T03:42:24.214Z,54.50
2022-10-14T03:44:50.754Z,54.17
2022-10-14T03:47:17.095Z,57.07
2022-10-14T03:49:43.483Z,60.53
2022-10-14T03:52:09.925Z,61.33
2022-10-14T03:54:36.248Z,55.37
2022-10-14T03:57:02.603Z,63.60
2022-10-14T03:59:28.913Z,54.20
2022-10-14T04:01:55.297Z,56.67
2022-10-14T04:04:21.785Z,58.77
2022-10-14T04:06:48.103Z,54.00
2022-10-14T04:09:14.542Z,52.20
2022-10-14T04:11:40.855Z,120.73
2022-10-14T04:14:07.491Z,105.23
2022-10-14T04:16:33.819Z,63.57
2022-10-14T04:19:00.201Z,61.57
2022-10-14T04:21:26.533Z,52.60
2022-10-14T04:23:52.930Z,56.80
2022-10-14T04:26:19.272Z,55.23
2022-10-14T04:28:46.127Z,54.47
2022-10-14T04:31:12.575Z,52.17
2022-10-14T04:33:39.021Z,54.97
2022-10-14T04:36:06.114Z,63.30
2022-10-14T04:38:32.675Z,55.93
2022-10-14T04:40:59.149Z,57.07
2022-10-14T04:43:25.527Z,57.23
2022-10-14T04:45:51.992Z,50.93
2022-10-14T04:48:18.515Z,59.10
2022-10-14T04:50:44.875Z,57.17
2022-10-14T04:53:13.738Z,52.83
2022-10-14T04:55:40.747Z,52.43
2022-10-14T04:58:07.154Z,60.90
2022-10-14T05:00:33.552Z,61.00
2022-10-14T05:02:59.937Z,63.23
2022-10-14T05:05:26.274Z,58.30
2022-10-14T05:07:52.610Z,53.93
2022-10-14T05:10:18.931Z,68.57
2022-10-14T05:12:45.269Z,62.03
2022-10-14T05:15:12.756Z,59.77
2022-10-14T05:17:39.547Z,60.70
2022-10-14T05:20:06.794Z,51.70
2022-10-14T05:22:33.115Z,57.00
2022-10-14T05:24:59.426Z,59.40
2022-10-14T05:27:25.750Z,63.73
2022-10-14T05:29:52.072Z,63.70
2022-10-14T05:32:18.493Z,56.47
2022-10-14T05:34:44.926Z,65.77
2022-10-14T05:37:11.295Z,63.73
2022-10-14T05:39:37.628Z,65.33
2022-10-14T05:42:04.118Z,64.93
2022-10-14T05:44:30.471Z,75.13
2022-10-14T05:46:56.835Z,77.93
2022-10-14T05:49:23.229Z,74.70
2022-10-14T05:51:49.631Z,72.47
2022-10-14T05:54:18.538Z,79.33
2022-10-14T05:56:44.867Z,75.83
2022-10-14T05:59:11.277Z,80.33
2022-10-14T06:01:38.366Z,73.03
2022-10-14T06:04:05.227Z,82.60
2022-10-14T06:06:31.612Z,76.07
2022-10-14T06:08:58.215Z,69.30
2022-10-14T06:11:24.592Z,78.10
2022-10-14T06:13:52.190Z,68.70
2022-10-14T06:16:18.540Z,70.83
2022-10-14T06:18:44.870Z,77.53
2022-10-14T06:21:12.163Z,68.60
2022-10-14T06:23:38.521Z,69.80
2022-10-14T06:26:06.214Z,68.53
2022-10-14T06:28:32.588Z,70.23
2022-10-14T06:30:58.959Z,67.67
2022-10-14T06:33:25.291Z,61.77
2022-10-14T06:35:51.653Z,74.17
2022-10-14T06:38:17.980Z,68.13
2022-10-14T06:40:44.474Z,71.97
2022-10-14T06:43:10.867Z,64.27
2022-10-14T06:45:37.205Z,70.37
2022-10-14T06:48:04.899Z,65.00
2022-10-14T06:50:31.243Z,72.13
2022-10-14T06:52:57.674Z,63.97
2022-10-14T06:55:23.992Z,62.43
2022-10-14T06:57:50.349Z,67.23
2022-10-14T07:00:16.997Z,59.90
2022-10-14T07:02:44.327Z,60.67
2022-10-14T07:05:10.786Z,64.73
2022-10-14T07:07:37.150Z,67.80
2022-10-14T07:10:03.722Z,62.93
2022-10-14T07:12:30.111Z,70.33
2022-10-14T07:14:57.033Z,65.37
2022-10-14T07:17:23.873Z,57.03
2022-10-14T07:19:50.505Z,57.43
2022-10-14T07:22:17.678Z,68.50
2022-10-14T07:24:44.691Z,66.37
2022-10-14T07:27:11.114Z,68.73
2022-10-14T07:29:37.570Z,60.90
2022-10-14T07:32:04.014Z,65.40
2022-10-14T07:34:30.385Z,59.47
2022-10-14T07:36:56.715Z,67.30
2022-10-14T07:39:23.858Z,63.23
2022-10-14T07:41:50.187Z,65.43
2022-10-14T07:44:17.324Z,68.97
2022-10-14T07:46:44.994Z,58.57
2022-10-14T07:49:12.689Z,68.77
2022-10-14T07:51:39.520Z,62.10
2022-10-14T07:54:09.860Z,67.80
2022-10-14T07:56:37.418Z,60.60
2022-10-14T07:59:05.579Z,60.63
2022-10-14T08:01:32.019Z,62.33
2022-10-14T08:03:58.551Z,65.33
2022-10-14T08:06:25.118Z,62.93
2022-10-14T08:08:51.438Z,66.03
2022-10-14T08:11:19.939Z,57.07
2022-10-14T08:13:46.598Z,56.17
2022-10-14T08:16:23.448Z,61.33
2022-10-14T08:18:50.329Z,59.43
2022-10-14T08:21:17.214Z,54.77
2022-10-14T08:23:43.534Z,51.30
2022-10-14T08:26:23.791Z,56.20
2022-10-14T08:28:51.053Z,52.83
2022-10-14T08:31:17.539Z,49.67
2022-10-14T08:33:44.058Z,48.67
2022-10-14T08:36:10.448Z,53.97
2022-10-14T08:38:36.822Z,41.80
2022-10-14T08:41:12.178Z,44.00
2022-10-14T08:43:41.615Z,41.23
2022-10-14T08:46:45.763Z,39.57
2022-10-14T08:49:23.465Z,37.10
2022-10-14T08:52:00.943Z,37.37
2022-10-14T08:54:33.865Z,39.27
2022-10-14T08:57:00.966Z,38.10
2022-10-14T08:59:27.505Z,36.00
2022-10-14T09:01:56.991Z,35.27
2022-10-14T09:04:23.404Z,37.53
2022-10-14T09:06:50.715Z,39.80
2022-10-14T09:09:19.990Z,34.93
2022-10-14T09:11:49.487Z,38.47
2022-10-14T09:14:18.709Z,35.67
2022-10-14T09:16:50.460Z,36.90
2022-10-14T09:19:25.706Z,35.43
2022-10-14T09:21:54.009Z,34.50
2022-10-14T09:24:25.761Z,34.23
2022-10-14T09:26:53.970Z,36.80
2022-10-14T09:29:25.401Z,29.27
2022-10-14T09:31:52.765Z,31.03
2022-10-14T09:34:20.561Z,29.07
2022-10-14T09:36:48.624Z,28.90
2022-10-14T09:39:15.049Z,30.50
2022-10-14T09:41:42.102Z,33.80
2022-10-14T09:44:22.207Z,31.17
2022-10-14T09:46:50.559Z,33.07
2022-10-14T09:49:19.084Z,33.63
2022-10-14T09:51:45.790Z,30.60
2022-10-14T09:54:26.463Z,32.03
2022-10-14T09:57:00.045Z,29.70
2022-10-14T09:59:26.434Z,28.20
2022-10-14T10:01:52.757Z,33.30
2022-10-14T10:04:29.738Z,35.97
2022-10-14T10:06:56.140Z,30.57
2022-10-14T10:09:22.566Z,30.70
2022-10-14T10:11:49.271Z,33.00
2022-10-14T10:14:18.717Z,28.90
2022-10-14T10:16:45.457Z,31.17
2022-10-14T10:19:27.615Z,34.53
2022-10-14T10:21:54.346Z,34.43
2022-10-14T10:24:25.989Z,34.60
2022-10-14T10:26:55.070Z,34.90
2022-10-14T10:29:25.571Z,32.13
2022-10-14T10:32:18.539Z,30.60
2022-10-14T10:34:48.055Z,34.47
2022-10-14T10:37:17.486Z,32.00
2022-10-14T10:39:53.658Z,31.97
2022-10-14T10:42:24.123Z,30.60
2022-10-14T10:45:06.438Z,31.97
2022-10-14T10:47:45.836Z,29.60
2022-10-14T10:50:12.178Z,30.03
2022-10-14T10:52:41.625Z,32.83
2022-10-14T10:55:18.741Z,33.57
2022-10-14T10:57:54.786Z,30.97
2022-10-14T11:03:28.372Z,32.53
2022-10-14T11:06:04.033Z,30.77
2022-10-14T11:08:55.309Z,29.10
2022-10-14T11:11:43.836Z,31.33
2022-10-14T11:14:19.560Z,29.53
2022-10-14T11:16:55.107Z,27.67
2022-10-14T11:19:30.376Z,26.90
2022-10-14T11:21:59.817Z,28.13
2022-10-14T11:24:29.261Z,28.07
2022-10-14T11:26:56.463Z,29.77
2022-10-14T11:29:22.813Z,27.13
2022-10-14T11:31:55.338Z,32.40
2022-10-14T11:34:24.516Z,31.00
2022-10-14T11:37:00.640Z,29.17
2022-10-14T11:39:31.979Z,29.77
2022-10-14T11:42:13.871Z,27.90
2022-10-14T11:44:41.308Z,29.50
2022-10-14T11:47:25.471Z,28.70
2022-10-14T11:50:10.985Z,32.00
2022-10-14T11:52:40.303Z,30.67
2022-10-14T11:55:13.771Z,27.70
2022-10-14T11:57:45.393Z,29.00
2022-10-14T12:00:11.878Z,27.40
2022-10-14T12:02:57.771Z,29.33
2022-10-14T12:05:24.168Z,28.17
2022-10-14T12:08:06.882Z,30.37
2022-10-14T12:10:35.277Z,28.43
2022-10-14T12:13:02.112Z,28.20
2022-10-14T12:15:28.727Z,28.83
2022-10-14T12:17:57.513Z,25.80
2022-10-14T12:20:29.663Z,28.93
2022-10-14T12:22:57.458Z,30.87
2022-10-14T12:25:24.742Z,31.43
2022-10-14T12:27:52.241Z,29.77
2022-10-14T12:30:33.914Z,25.97
2022-10-14T12:33:02.686Z,26.50
2022-10-14T12:35:47.957Z,45.47
2022-10-14T12:38:14.281Z,22.00
2022-10-14T12:40:40.636Z,20.33
2022-10-14T12:43:13.965Z,23.73
2022-10-14T12:45:47.882Z,20.73
2022-10-14T12:48:15.879Z,23.27
2022-10-14T12:50:46.778Z,23.00
2022-10-14T12:53:27.018Z,20.93
2022-10-14T12:55:55.435Z,16.10
2022-10-14T12:58:26.910Z,17.23
2022-10-14T13:00:55.113Z,18.77
2022-10-14T13:03:24.196Z,15.80
2022-10-14T13:05:50.710Z,13.53
2022-10-14T13:08:20.091Z,12.83
2022-10-14T13:11:09.107Z,13.97
2022-10-14T13:13:38.554Z,12.23
2022-10-14T13:16:05.638Z,12.83
2022-10-14T13:18:33.590Z,14.23
2022-10-14T13:20:59.930Z,13.03
2022-10-14T13:23:44.872Z,17.53
2022-10-14T13:26:11.351Z,14.40
2022-10-14T13:28:56.869Z,14.90
2022-10-14T13:31:33.358Z,16.50
2022-10-14T13:34:26.200Z,16.73
2022-10-14T13:37:02.286Z,14.73
2022-10-14T13:39:31.460Z,15.53
2022-10-14T13:41:58.700Z,17.83
2022-10-14T13:44:25.420Z,18.00
2022-10-14T13:46:52.081Z,16.77
2022-10-14T13:49:20.710Z,17.50
2022-10-14T13:51:55.972Z,18.47
2022-10-14T13:54:26.315Z,15.87
2022-10-14T14:00:22.575Z,16.13
2022-10-14T14:02:33.948Z,17.77
2022-10-14T14:05:00.924Z,15.70
2022-10-14T14:08:14.195Z,14.57
2022-10-14T14:10:22.350Z,12.80
2022-10-14T14:12:49.043Z,12.97
2022-10-14T14:15:21.666Z,13.63
2022-10-14T14:17:48.031Z,15.23
2022-10-14T14:20:17.740Z,14.73
2022-10-14T14:22:44.096Z,14.23
2022-10-14T14:25:31.828Z,16.17
2022-10-14T14:27:59.860Z,12.10
2022-10-14T14:30:28.985Z,14.03
2022-10-14T14:32:56.179Z,14.33
2022-10-14T14:35:23.029Z,10.70
2022-10-14T14:37:56.994Z,15.63
2022-10-14T14:40:25.385Z,14.60
2022-10-14T14:42:53.654Z,12.80
2022-10-14T14:45:21.825Z,13.70
2022-10-14T14:47:49.906Z,13.43
2022-10-14T14:50:29.913Z,16.63
2022-10-14T14:52:59.374Z,14.80
2022-10-14T14:55:34.726Z,16.67
2022-10-14T14:58:02.428Z,13.00
2022-10-14T15:00:30.663Z,14.77
2022-10-14T15:03:01.434Z,16.07
2022-10-14T15:05:28.010Z,13.63
2022-10-14T15:07:54.830Z,12.10
2022-10-14T15:10:28.847Z,17.07
2022-10-14T15:12:57.339Z,17.03
2022-10-14T15:15:29.990Z,13.97
2022-10-14T15:18:11.825Z,17.43
2022-10-14T15:20:38.316Z,14.20
2022-10-14T15:23:23.428Z,15.37
2022-10-14T15:25:59.012Z,12.10
2022-10-14T15:28:32.469Z,19.60
2022-10-14T15:31:03.070Z,14.43
2022-10-14T15:33:32.138Z,14.83
2022-10-14T15:35:59.556Z,19.37
2022-10-14T15:38:26.818Z,17.53
2022-10-14T15:40:56.152Z,14.53
2022-10-14T15:43:23.766Z,25.67
2022-10-14T15:46:12.690Z,28.57
2022-10-14T15:48:47.003Z,16.93
2022-10-14T15:51:15.418Z,16.27
2022-10-14T15:53:41.760Z,14.90
2022-10-14T15:56:10.314Z,13.23
2022-10-14T15:58:36.966Z,14.90
2022-10-14T16:01:04.397Z,20.73
2022-10-14T16:03:34.787Z,16.37
2022-10-14T16:06:03.935Z,16.67
2022-10-14T16:08:30.310Z,19.00
2022-10-14T16:10:57.574Z,15.70
2022-10-14T16:13:23.970Z,17.83
2022-10-14T16:15:56.254Z,16.53
2022-10-14T16:18:24.471Z,16.23
2022-10-14T16:20:51.084Z,16.33
2022-10-14T16:23:21.447Z,14.43
2022-10-14T16:25:49.241Z,15.73
2022-10-14T16:28:16.324Z,17.83
2022-10-14T16:30:48.747Z,17.10
2022-10-14T16:33:16.240Z,14.17
2022-10-14T16:35:43.039Z,19.07
2022-10-14T16:38:11.429Z,18.47
2022-10-14T16:40:37.826Z,15.50
2022-10-14T16:43:04.504Z,15.10
2022-10-14T16:45:30.829Z,24.17
2022-10-14T16:47:57.269Z,22.13
2022-10-14T16:50:23.651Z,56.17
2022-10-14T16:53:08.711Z,21.93
2022-10-14T16:55:35.070Z,18.10
2022-10-14T16:58:01.568Z,18.23
2022-10-14T17:00:27.975Z,15.47
2022-10-14T17:02:55.155Z,14.97
2022-10-14T17:05:21.554Z,15.97
2022-10-14T17:07:47.883Z,17.37
2022-10-14T17:10:14.240Z,19.77
2022-10-14T17:12:41.018Z,19.30
2022-10-14T17:15:07.562Z,18.20
2022-10-14T17:17:33.971Z,19.13
2022-10-14T17:20:00.311Z,17.90
2022-10-14T17:22:26.905Z,16.13
2022-10-14T17:24:54.341Z,16.27
2022-10-14T17:27:24.111Z,18.70
2022-10-14T17:29:50.610Z,14.23
2022-10-14T17:32:17.595Z,16.50
2022-10-14T17:34:44.094Z,15.03
2022-10-14T17:37:10.421Z,14.00
2022-10-14T17:39:37.328Z,13.07
2022-10-14T17:42:03.987Z,12.73
2022-10-14T17:44:30.367Z,15.00
2022-10-14T17:46:57.190Z,13.73
2022-10-14T17:49:23.566Z,13.87
2022-10-14T17:51:50.190Z,15.70
2022-10-14T17:54:16.592Z,17.30
2022-10-14T17:56:43.246Z,23.20
2022-10-14T17:59:10.805Z,13.33
2022-10-14T18:02:01.018Z,13.70
2022-10-14T18:04:23.673Z,12.73
2022-10-14T18:06:50.075Z,17.03
2022-10-14T18:09:16.543Z,13.97
2022-10-14T18:14:30.095Z,13.00
2022-10-14T18:16:56.518Z,15.17
2022-10-14T18:19:22.883Z,14.20
2022-10-14T18:21:49.251Z,16.30
2022-10-14T18:24:15.745Z,12.13
2022-10-14T18:26:42.139Z,13.00
2022-10-14T18:29:08.662Z,10.13
2022-10-14T18:31:35.332Z,23.07
2022-10-14T18:34:02.090Z,12.87
2022-10-14T18:36:29.963Z,15.13
2022-10-14T18:38:57.475Z,11.63
2022-10-14T18:41:24.286Z,11.87
2022-10-14T18:43:50.945Z,10.83
2022-10-14T18:46:21.708Z,13.57
2022-10-14T18:48:49.349Z,13.63
2022-10-14T18:51:16.793Z,11.97
2022-10-14T18:53:45.168Z,11.50
2022-10-14T18:56:15.738Z,11.33
2022-10-14T18:58:42.747Z,11.37
2022-10-14T19:01:10.151Z,10.20
2022-10-14T19:03:39.859Z,10.83
2022-10-14T19:06:07.684Z,12.80
2022-10-14T19:08:35.763Z,11.43
2022-10-14T19:11:05.935Z,12.90
2022-10-14T19:13:32.335Z,13.17
2022-10-14T19:16:01.746Z,10.53
2022-10-14T19:18:28.111Z,10.47
2022-10-14T19:20:57.042Z,11.37
2022-10-14T19:23:24.820Z,10.63
2022-10-14T19:25:51.162Z,11.90
2022-10-14T19:28:18.282Z,13.67
2022-10-14T19:30:44.682Z,10.97
2022-10-14T19:33:11.010Z,11.03
2022-10-14T19:35:37.356Z,14.83
2022-10-14T19:38:03.730Z,17.63
2022-10-14T19:40:30.043Z,10.60
2022-10-14T19:42:56.377Z,10.30
2022-10-14T19:45:22.753Z,13.40
2022-10-14T19:47:49.076Z,11.17
2022-10-14T19:50:15.488Z,37.90
2022-10-14T19:52:41.839Z,19.77
2022-10-14T19:55:08.495Z,10.53
2022-10-14T19:57:34.890Z,13.10
2022-10-14T20:00:01.253Z,12.10
2022-10-14T20:02:27.705Z,12.40
2022-10-14T20:04:54.054Z,13.83
2022-10-14T20:07:20.667Z,12.77
2022-10-14T20:09:47.478Z,11.53
2022-10-14T20:12:13.800Z,12.40
2022-10-14T20:14:40.160Z,11.37
2022-10-14T20:17:06.704Z,10.53
2022-10-14T20:19:33.038Z,9.73
2022-10-14T20:22:01.582Z,13.63
2022-10-14T20:24:28.003Z,13.20
2022-10-14T20:26:54.816Z,9.23
2022-10-14T20:29:21.171Z,11.93
2022-10-14T20:31:47.533Z,9.63
2022-10-14T20:34:13.865Z,9.83
2022-10-14T20:36:40.219Z,11.37
2022-10-14T20:39:06.780Z,9.80
2022-10-14T20:41:33.114Z,11.47
2022-10-14T20:43:59.449Z,10.40
2022-10-14T20:46:25.842Z,9.10
2022-10-14T20:48:56.171Z,11.03
2022-10-14T20:51:22.941Z,12.13
2022-10-14T20:53:49.726Z,10.67
2022-10-14T20:56:16.186Z,9.53
2022-10-14T20:58:42.706Z,10.07
2022-10-14T21:01:13.889Z,10.17
2022-10-14T21:03:41.374Z,11.57
2022-10-14T21:06:09.272Z,13.77
2022-10-14T21:08:35.738Z,9.40
2022-10-14T21:11:02.899Z,11.00
2022-10-14T21:13:30.007Z,11.13
2022-10-14T21:15:56.732Z,9.33
2022-10-14T21:18:23.261Z,10.77
2022-10-14T21:20:49.907Z,11.97
2022-10-14T21:23:16.328Z,10.70
2022-10-14T21:25:43.079Z,8.23
2022-10-14T21:28:09.538Z,13.13
2022-10-14T21:30:39.944Z,9.07
2022-10-14T21:33:06.275Z,10.67
2022-10-14T21:35:32.679Z,10.77
2022-10-14T21:37:59.123Z,9.93
2022-10-14T21:40:25.469Z,9.63
2022-10-14T21:42:52.274Z,8.33
2022-10-14T21:45:18.685Z,13.33
2022-10-14T21:47:45.211Z,9.87
2022-10-14T21:50:11.643Z,8.47
2022-10-14T21:52:37.990Z,14.17
2022-10-14T21:55:04.670Z,10.20
2022-10-14T21:57:31.075Z,12.10
2022-10-14T21:59:57.426Z,8.73
2022-10-14T22:02:23.861Z,10.60
2022-10-14T22:04:50.198Z,9.27
2022-10-14T22:07:16.623Z,8.83
2022-10-14T22:09:42.935Z,8.60
2022-10-14T22:12:09.571Z,10.40
2022-10-14T22:14:36.126Z,11.73
2022-10-14T22:17:02.483Z,10.93
2022-10-14T22:19:28.841Z,12.40
2022-10-14T22:21:55.168Z,12.30
2022-10-14T22:24:21.477Z,12.43
2022-10-14T22:26:49.911Z,11.87
2022-10-14T22:29:17.106Z,9.33
2022-10-14T22:31:43.826Z,9.57
2022-10-14T22:34:11.362Z,9.93
2022-10-14T22:36:37.949Z,10.43
2022-10-14T22:39:06.351Z,13.43
2022-10-14T22:41:35.689Z,11.17
2022-10-14T22:44:02.942Z,13.20
2022-10-14T22:46:30.852Z,11.80
2022-10-14T22:48:57.911Z,17.23
2022-10-14T22:54:12.069Z,11.13
2022-10-14T22:56:38.900Z,13.83
2022-10-14T22:59:06.727Z,11.47
2022-10-14T23:01:33.441Z,13.63
2022-10-14T23:04:00.103Z,14.83
2022-10-14T23:06:26.764Z,15.87
2022-10-14T23:08:54.374Z,15.00
2022-10-14T23:11:21.692Z,11.93
2022-10-14T23:13:48.153Z,14.70
2022-10-14T23:16:15.877Z,13.10
2022-10-14T23:21:30.213Z,17.43
2022-10-14T23:23:57.714Z,16.40
2022-10-14T23:26:26.583Z,14.17
2022-10-14T23:28:54.477Z,10.17
2022-10-14T23:31:21.995Z,15.63
2022-10-14T23:33:49.150Z,16.83
2022-10-14T23:36:16.297Z,14.73
2022-10-14T23:38:43.066Z,16.33
2022-10-14T23:41:10.323Z,19.43
2022-10-14T23:43:36.741Z,14.90
2022-10-14T23:46:03.433Z,15.10
2022-10-14T23:48:29.883Z,14.00
2022-10-14T23:50:56.331Z,16.70
2022-10-14T23:53:22.718Z,15.17
2022-10-14T23:55:49.125Z,17.73
2022-10-14T23:58:15.785Z,18.17
